sensor_id;sensor_type;location;lat;lon;timestamp;pressure;altitude;pressure_sealevel;temperature;humidity
31044;BME280;17710;52.520;13.352;2023-07-31T00:01:29;100781.19;;;20.76;69.80
31044;BME280;17710;52.520;13.352;2023-07-31T00:03:55;100768.47;;;20.67;69.90
31044;BME280;17710;52.520;13.352;2023-07-31T00:06:22;100768.00;;;20.73;69.89
31044;BME280;17710;52.520;13.352;2023-07-31T00:08:48;100766.19;;;21.07;69.04
31044;BME280;17710;52.520;13.352;2023-07-31T00:11:15;100769.25;;;20.80;69.80
31044;BME280;17710;52.520;13.352;2023-07-31T00:13:41;100770.31;;;20.78;70.67
31044;BME280;17710;52.520;13.352;2023-07-31T00:16:07;100769.25;;;20.91;70.39
31044;BME280;17710;52.520;13.352;2023-07-31T00:18:35;100766.78;;;20.88;71.12
31044;BME280;17710;52.520;13.352;2023-07-31T00:21:02;100761.03;;;20.82;71.06
31044;BME280;17710;52.520;13.352;2023-07-31T00:23:28;100761.69;;;20.85;71.09
31044;BME280;17710;52.520;13.352;2023-07-31T00:25:55;100766.31;;;20.94;70.60
31044;BME280;17710;52.520;13.352;2023-07-31T00:28:21;100752.03;;;20.94;70.44
31044;BME280;17710;52.520;13.352;2023-07-31T00:30:48;100745.56;;;20.74;71.07
31044;BME280;17710;52.520;13.352;2023-07-31T00:33:14;100740.91;;;20.87;70.52
31044;BME280;17710;52.520;13.352;2023-07-31T00:35:42;100744.94;;;20.82;70.73
31044;BME280;17710;52.520;13.352;2023-07-31T00:38:08;100746.78;;;20.92;70.76
31044;BME280;17710;52.520;13.352;2023-07-31T00:40:35;100745.56;;;20.74;71.97
31044;BME280;17710;52.520;13.352;2023-07-31T00:43:02;100744.31;;;20.78;71.24
31044;BME280;17710;52.520;13.352;2023-07-31T00:45:29;100741.38;;;20.70;72.47
31044;BME280;17710;52.520;13.352;2023-07-31T00:47:56;100736.75;;;20.83;71.91
31044;BME280;17710;52.520;13.352;2023-07-31T00:50:24;100737.75;;;20.93;71.83
31044;BME280;17710;52.520;13.352;2023-07-31T00:52:52;100738.84;;;21.02;71.79
31044;BME280;17710;52.520;13.352;2023-07-31T00:55:19;100739.66;;;20.69;72.89
31044;BME280;17710;52.520;13.352;2023-07-31T00:57:48;100738.09;;;20.78;73.16
31044;BME280;17710;52.520;13.352;2023-07-31T01:00:14;100746.16;;;20.89;72.28
31044;BME280;17710;52.520;13.352;2023-07-31T01:02:41;100731.66;;;21.02;71.79
31044;BME280;17710;52.520;13.352;2023-07-31T01:05:07;100718.59;;;21.09;71.11
31044;BME280;17710;52.520;13.352;2023-07-31T01:07:39;100720.06;;;21.13;71.60
31044;BME280;17710;52.520;13.352;2023-07-31T01:10:15;100728.69;;;20.83;72.31
31044;BME280;17710;52.520;13.352;2023-07-31T01:12:45;100729.69;;;21.04;72.15
31044;BME280;17710;52.520;13.352;2023-07-31T01:15:12;100725.78;;;20.97;72.25
31044;BME280;17710;52.520;13.352;2023-07-31T01:17:42;100721.66;;;21.04;72.34
31044;BME280;17710;52.520;13.352;2023-07-31T01:20:11;100722.38;;;20.95;73.02
31044;BME280;17710;52.520;13.352;2023-07-31T01:22:49;100724.13;;;21.19;72.12
31044;BME280;17710;52.520;13.352;2023-07-31T01:25:35;100716.78;;;21.32;72.42
31044;BME280;17710;52.520;13.352;2023-07-31T01:28:09;100712.38;;;21.31;71.30
31044;BME280;17710;52.520;13.352;2023-07-31T01:30:41;100727.03;;;21.27;72.16
31044;BME280;17710;52.520;13.352;2023-07-31T01:33:10;100721.66;;;21.16;73.66
31044;BME280;17710;52.520;13.352;2023-07-31T01:35:37;100718.88;;;21.17;73.34
31044;BME280;17710;52.520;13.352;2023-07-31T01:38:04;100719.34;;;21.22;73.06
31044;BME280;17710;52.520;13.352;2023-07-31T01:40:31;100712.97;;;21.12;73.00
31044;BME280;17710;52.520;13.352;2023-07-31T01:42:57;100702.38;;;21.22;72.83
31044;BME280;17710;52.520;13.352;2023-07-31T01:45:25;100705.28;;;21.41;71.43
31044;BME280;17710;52.520;13.352;2023-07-31T01:47:51;100704.66;;;21.15;72.34
31044;BME280;17710;52.520;13.352;2023-07-31T01:50:18;100694.06;;;21.25;71.17
31044;BME280;17710;52.520;13.352;2023-07-31T01:52:44;100697.56;;;21.47;71.37
31044;BME280;17710;52.520;13.352;2023-07-31T01:55:11;100688.44;;;21.39;71.51
31044;BME280;17710;52.520;13.352;2023-07-31T01:57:37;100689.78;;;21.22;71.91
31044;BME280;17710;52.520;13.352;2023-07-31T02:00:05;100692.22;;;21.36;71.43
31044;BME280;17710;52.520;13.352;2023-07-31T02:02:32;100688.88;;;21.55;71.58
31044;BME280;17710;52.520;13.352;2023-07-31T02:04:59;100683.47;;;21.66;71.00
31044;BME280;17710;52.520;13.352;2023-07-31T02:07:25;100682.28;;;21.59;71.08
31044;BME280;17710;52.520;13.352;2023-07-31T02:09:52;100683.16;;;21.48;71.18
31044;BME280;17710;52.520;13.352;2023-07-31T02:12:19;100681.97;;;21.73;70.82
31044;BME280;17710;52.520;13.352;2023-07-31T02:14:45;100674.50;;;21.45;72.10
31044;BME280;17710;52.520;13.352;2023-07-31T02:17:11;100676.56;;;21.53;72.13
31044;BME280;17710;52.520;13.352;2023-07-31T02:19:39;100680.22;;;21.40;71.66
31044;BME280;17710;52.520;13.352;2023-07-31T02:22:06;100678.03;;;21.34;71.83
31044;BME280;17710;52.520;13.352;2023-07-31T02:24:32;100674.22;;;21.59;70.70
31044;BME280;17710;52.520;13.352;2023-07-31T02:26:58;100676.94;;;21.37;71.95
31044;BME280;17710;52.520;13.352;2023-07-31T02:29:25;100671.38;;;21.61;72.50
31044;BME280;17710;52.520;13.352;2023-07-31T02:31:51;100678.41;;;21.30;72.68
31044;BME280;17710;52.520;13.352;2023-07-31T02:34:17;100669.13;;;21.45;70.95
31044;BME280;17710;52.520;13.352;2023-07-31T02:36:45;100671.59;;;21.26;72.50
31044;BME280;17710;52.520;13.352;2023-07-31T02:39:11;100661.09;;;21.23;73.32
31044;BME280;17710;52.520;13.352;2023-07-31T02:41:38;100664.75;;;21.22;71.48
31044;BME280;17710;52.520;13.352;2023-07-31T02:44:04;100659.03;;;21.26;70.40
31044;BME280;17710;52.520;13.352;2023-07-31T02:46:31;100647.41;;;21.26;71.34
31044;BME280;17710;52.520;13.352;2023-07-31T02:48:57;100648.88;;;20.96;71.73
31044;BME280;17710;52.520;13.352;2023-07-31T02:51:23;100656.47;;;20.80;72.33
31044;BME280;17710;52.520;13.352;2023-07-31T02:53:51;100651.53;;;21.07;72.92
31044;BME280;17710;52.520;13.352;2023-07-31T02:56:18;100650.88;;;21.48;72.12
31044;BME280;17710;52.520;13.352;2023-07-31T02:58:44;100651.00;;;21.47;71.96
31044;BME280;17710;52.520;13.352;2023-07-31T03:01:10;100649.81;;;21.40;71.77
31044;BME280;17710;52.520;13.352;2023-07-31T03:03:37;100652.72;;;21.48;72.02
31044;BME280;17710;52.520;13.352;2023-07-31T03:06:03;100648.31;;;21.47;72.23
31044;BME280;17710;52.520;13.352;2023-07-31T03:08:29;100653.03;;;21.23;72.40
31044;BME280;17710;52.520;13.352;2023-07-31T03:10:57;100659.38;;;21.33;72.48
31044;BME280;17710;52.520;13.352;2023-07-31T03:13:24;100656.91;;;21.30;71.86
31044;BME280;17710;52.520;13.352;2023-07-31T03:15:50;100647.91;;;20.97;72.92
31044;BME280;17710;52.520;13.352;2023-07-31T03:18:17;100642.28;;;21.12;71.91
31044;BME280;17710;52.520;13.352;2023-07-31T03:20:43;100647.88;;;21.08;72.19
31044;BME280;17710;52.520;13.352;2023-07-31T03:23:10;100647.91;;;21.20;72.84
31044;BME280;17710;52.520;13.352;2023-07-31T03:25:36;100636.91;;;21.23;72.22
31044;BME280;17710;52.520;13.352;2023-07-31T03:28:04;100640.81;;;21.19;72.56
31044;BME280;17710;52.520;13.352;2023-07-31T03:30:31;100635.56;;;21.06;73.12
31044;BME280;17710;52.520;13.352;2023-07-31T03:32:57;100630.00;;;21.41;72.55
31044;BME280;17710;52.520;13.352;2023-07-31T03:35:23;100630.28;;;21.38;72.35
31044;BME280;17710;52.520;13.352;2023-07-31T03:37:50;100635.03;;;21.45;71.89
31044;BME280;17710;52.520;13.352;2023-07-31T03:40:16;100630.06;;;21.30;72.10
31044;BME280;17710;52.520;13.352;2023-07-31T03:42:42;100629.78;;;21.44;71.84
31044;BME280;17710;52.520;13.352;2023-07-31T03:45:10;100627.63;;;21.16;72.42
31044;BME280;17710;52.520;13.352;2023-07-31T03:47:37;100622.50;;;21.24;72.20
31044;BME280;17710;52.520;13.352;2023-07-31T03:50:03;100610.63;;;21.37;72.13
31044;BME280;17710;52.520;13.352;2023-07-31T03:52:30;100615.13;;;21.15;72.61
31044;BME280;17710;52.520;13.352;2023-07-31T03:54:56;100617.97;;;21.24;71.53
31044;BME280;17710;52.520;13.352;2023-07-31T03:57:22;100618.56;;;21.28;71.95
31044;BME280;17710;52.520;13.352;2023-07-31T03:59:49;100618.78;;;21.36;71.69
31044;BME280;17710;52.520;13.352;2023-07-31T04:02:17;100616.97;;;21.14;72.41
31044;BME280;17710;52.520;13.352;2023-07-31T04:04:43;100613.81;;;21.31;71.66
31044;BME280;17710;52.520;13.352;2023-07-31T04:07:10;100615.16;;;21.03;71.54
31044;BME280;17710;52.520;13.352;2023-07-31T04:09:36;100616.09;;;21.14;72.33
31044;BME280;17710;52.520;13.352;2023-07-31T04:12:03;100613.47;;;21.25;71.89
31044;BME280;17710;52.520;13.352;2023-07-31T04:14:30;100602.72;;;21.25;70.99
31044;BME280;17710;52.520;13.352;2023-07-31T04:16:56;100606.88;;;21.06;71.42
31044;BME280;17710;52.520;13.352;2023-07-31T04:19:24;100603.44;;;21.16;71.41
31044;BME280;17710;52.520;13.352;2023-07-31T04:21:50;100604.91;;;20.97;71.73
31044;BME280;17710;52.520;13.352;2023-07-31T04:24:17;100598.31;;;21.13;71.74
31044;BME280;17710;52.520;13.352;2023-07-31T04:26:49;100595.38;;;21.04;71.64
31044;BME280;17710;52.520;13.352;2023-07-31T04:29:15;100582.78;;;21.27;71.22
31044;BME280;17710;52.520;13.352;2023-07-31T04:31:42;100590.25;;;21.13;71.44
31044;BME280;17710;52.520;13.352;2023-07-31T04:34:08;100595.38;;;21.16;71.74
31044;BME280;17710;52.520;13.352;2023-07-31T04:36:36;100592.19;;;21.22;71.08
31044;BME280;17710;52.520;13.352;2023-07-31T04:39:02;100592.44;;;21.30;70.90
31044;BME280;17710;52.520;13.352;2023-07-31T04:41:29;100588.16;;;21.27;71.42
31044;BME280;17710;52.520;13.352;2023-07-31T04:43:55;100586.81;;;21.33;71.23
31044;BME280;17710;52.520;13.352;2023-07-31T04:46:22;100582.91;;;21.26;71.41
31044;BME280;17710;52.520;13.352;2023-07-31T04:48:48;100581.44;;;21.22;71.42
31044;BME280;17710;52.520;13.352;2023-07-31T04:51:15;100576.34;;;21.19;71.34
31044;BME280;17710;52.520;13.352;2023-07-31T04:53:42;100578.88;;;21.09;72.45
31044;BME280;17710;52.520;13.352;2023-07-31T04:56:09;100585.84;;;21.12;71.31
31044;BME280;17710;52.520;13.352;2023-07-31T04:58:35;100587.28;;;21.27;71.70
31044;BME280;17710;52.520;13.352;2023-07-31T05:01:02;100590.56;;;21.41;71.11
31044;BME280;17710;52.520;13.352;2023-07-31T05:03:28;100585.50;;;21.48;70.36
31044;BME280;17710;52.520;13.352;2023-07-31T05:05:54;100589.69;;;21.52;70.55
31044;BME280;17710;52.520;13.352;2023-07-31T05:08:21;100582.06;;;21.57;70.42
31044;BME280;17710;52.520;13.352;2023-07-31T05:10:49;100580.19;;;21.90;69.84
31044;BME280;17710;52.520;13.352;2023-07-31T05:13:16;100571.72;;;22.05;69.57
31044;BME280;17710;52.520;13.352;2023-07-31T05:15:42;100577.44;;;22.12;68.86
31044;BME280;17710;52.520;13.352;2023-07-31T05:18:08;100583.97;;;22.19;68.82
31044;BME280;17710;52.520;13.352;2023-07-31T05:20:35;100577.81;;;22.07;69.76
31044;BME280;17710;52.520;13.352;2023-07-31T05:23:01;100582.00;;;22.00;70.10
31044;BME280;17710;52.520;13.352;2023-07-31T05:25:28;100575.19;;;22.17;68.21
31044;BME280;17710;52.520;13.352;2023-07-31T05:27:56;100572.28;;;22.09;68.93
31044;BME280;17710;52.520;13.352;2023-07-31T05:30:22;100574.22;;;21.97;69.56
31044;BME280;17710;52.520;13.352;2023-07-31T05:32:49;100573.19;;;22.19;69.38
31044;BME280;17710;52.520;13.352;2023-07-31T05:35:16;100566.72;;;22.01;69.86
31044;BME280;17710;52.520;13.352;2023-07-31T05:37:42;100574.22;;;21.97;70.04
31044;BME280;17710;52.520;13.352;2023-07-31T05:40:09;100567.13;;;21.96;69.43
31044;BME280;17710;52.520;13.352;2023-07-31T05:42:35;100563.09;;;21.91;70.08
31044;BME280;17710;52.520;13.352;2023-07-31T05:45:06;100568.09;;;22.16;68.89
31044;BME280;17710;52.520;13.352;2023-07-31T05:47:32;100571.25;;;22.00;69.17
31044;BME280;17710;52.520;13.352;2023-07-31T05:49:59;100553.03;;;21.93;69.59
31044;BME280;17710;52.520;13.352;2023-07-31T05:52:25;100558.06;;;22.18;68.90
31044;BME280;17710;52.520;13.352;2023-07-31T05:54:54;100551.75;;;22.08;69.04
31044;BME280;17710;52.520;13.352;2023-07-31T05:57:20;100548.53;;;22.14;68.97
31044;BME280;17710;52.520;13.352;2023-07-31T05:59:46;100556.41;;;22.06;69.27
31044;BME280;17710;52.520;13.352;2023-07-31T06:02:15;100553.56;;;21.86;69.30
31044;BME280;17710;52.520;13.352;2023-07-31T06:04:41;100557.78;;;22.21;68.61
31044;BME280;17710;52.520;13.352;2023-07-31T06:07:07;100550.22;;;22.15;68.88
31044;BME280;17710;52.520;13.352;2023-07-31T06:09:34;100557.78;;;22.51;68.21
31044;BME280;17710;52.520;13.352;2023-07-31T06:12:01;100549.53;;;22.43;67.82
31044;BME280;17710;52.520;13.352;2023-07-31T06:14:27;100554.09;;;22.22;68.92
31044;BME280;17710;52.520;13.352;2023-07-31T06:16:53;100550.22;;;22.15;69.21
31044;BME280;17710;52.520;13.352;2023-07-31T06:19:21;100545.72;;;22.15;69.28
31044;BME280;17710;52.520;13.352;2023-07-31T06:21:47;100550.09;;;22.16;69.17
31044;BME280;17710;52.520;13.352;2023-07-31T06:24:14;100546.81;;;22.13;69.55
31044;BME280;17710;52.520;13.352;2023-07-31T06:26:44;100550.03;;;22.07;69.96
31044;BME280;17710;52.520;13.352;2023-07-31T06:29:10;100554.28;;;22.30;69.73
31044;BME280;17710;52.520;13.352;2023-07-31T06:31:37;100551.91;;;22.37;68.78
31044;BME280;17710;52.520;13.352;2023-07-31T06:34:03;100552.03;;;22.35;69.42
31044;BME280;17710;52.520;13.352;2023-07-31T06:36:31;100554.72;;;22.35;68.79
31044;BME280;17710;52.520;13.352;2023-07-31T06:38:58;100547.81;;;22.42;69.09
31044;BME280;17710;52.520;13.352;2023-07-31T06:41:24;100551.88;;;22.57;68.51
31044;BME280;17710;52.520;13.352;2023-07-31T06:43:51;100549.00;;;22.49;69.35
31044;BME280;17710;52.520;13.352;2023-07-31T06:46:17;100542.81;;;22.68;69.05
31044;BME280;17710;52.520;13.352;2023-07-31T06:48:44;100550.19;;;22.66;68.89
31044;BME280;17710;52.520;13.352;2023-07-31T06:51:10;100544.72;;;22.47;69.11
31044;BME280;17710;52.520;13.352;2023-07-31T06:53:38;100546.09;;;22.72;68.92
31044;BME280;17710;52.520;13.352;2023-07-31T06:56:04;100546.72;;;22.45;68.50
31044;BME280;17710;52.520;13.352;2023-07-31T06:58:31;100546.50;;;22.67;68.07
31044;BME280;17710;52.520;13.352;2023-07-31T07:00:57;100552.56;;;22.90;67.27
31044;BME280;17710;52.520;13.352;2023-07-31T07:03:23;100548.78;;;23.02;67.01
31044;BME280;17710;52.520;13.352;2023-07-31T07:05:50;100541.81;;;22.99;66.91
31044;BME280;17710;52.520;13.352;2023-07-31T07:08:17;100549.16;;;22.88;67.03
31044;BME280;17710;52.520;13.352;2023-07-31T07:10:45;100543.19;;;22.84;67.71
31044;BME280;17710;52.520;13.352;2023-07-31T07:13:11;100548.78;;;22.72;67.90
31044;BME280;17710;52.520;13.352;2023-07-31T07:15:39;100556.72;;;22.63;68.72
31044;BME280;17710;52.520;13.352;2023-07-31T07:18:05;100553.72;;;22.66;68.83
31044;BME280;17710;52.520;13.352;2023-07-31T07:20:32;100551.31;;;22.63;68.90
31044;BME280;17710;52.520;13.352;2023-07-31T07:22:59;100558.69;;;22.61;68.66
31044;BME280;17710;52.520;13.352;2023-07-31T07:25:25;100555.69;;;22.24;69.03
31044;BME280;17710;52.520;13.352;2023-07-31T07:27:53;100550.63;;;22.31;70.23
31044;BME280;17710;52.520;13.352;2023-07-31T07:30:19;100553.34;;;22.41;70.17
31044;BME280;17710;52.520;13.352;2023-07-31T07:32:46;100546.25;;;22.40;70.15
31044;BME280;17710;52.520;13.352;2023-07-31T07:35:12;100545.56;;;22.47;70.17
31044;BME280;17710;52.520;13.352;2023-07-31T07:37:39;100547.41;;;22.47;70.03
31044;BME280;17710;52.520;13.352;2023-07-31T07:40:07;100542.53;;;22.31;69.65
31044;BME280;17710;52.520;13.352;2023-07-31T07:42:33;100540.94;;;22.89;69.00
31044;BME280;17710;52.520;13.352;2023-07-31T07:45:01;100543.50;;;23.00;68.64
31044;BME280;17710;52.520;13.352;2023-07-31T07:47:28;100541.19;;;22.77;68.05
31044;BME280;17710;52.520;13.352;2023-07-31T07:49:54;100538.44;;;23.17;67.46
31044;BME280;17710;52.520;13.352;2023-07-31T07:52:21;100532.50;;;23.23;66.62
31044;BME280;17710;52.520;13.352;2023-07-31T07:54:47;100531.78;;;23.21;67.49
31044;BME280;17710;52.520;13.352;2023-07-31T07:57:13;100538.69;;;23.04;67.70
31044;BME280;17710;52.520;13.352;2023-07-31T07:59:40;100533.47;;;23.02;67.75
31044;BME280;17710;52.520;13.352;2023-07-31T08:02:08;100535.44;;;22.60;69.62
31044;BME280;17710;52.520;13.352;2023-07-31T08:04:35;100524.09;;;22.26;71.93
31044;BME280;17710;52.520;13.352;2023-07-31T08:07:01;100531.06;;;22.39;71.88
31044;BME280;17710;52.520;13.352;2023-07-31T08:09:27;100535.44;;;22.60;70.48
31044;BME280;17710;52.520;13.352;2023-07-31T08:11:54;100529.34;;;23.08;69.38
31044;BME280;17710;52.520;13.352;2023-07-31T08:14:23;100526.06;;;22.95;69.09
31044;BME280;17710;52.520;13.352;2023-07-31T08:16:49;100515.72;;;22.90;70.25
31044;BME280;17710;52.520;13.352;2023-07-31T08:19:17;100517.09;;;22.85;69.73
31044;BME280;17710;52.520;13.352;2023-07-31T08:21:43;100520.13;;;23.11;69.32
31044;BME280;17710;52.520;13.352;2023-07-31T08:24:10;100520.84;;;23.03;69.21
31044;BME280;17710;52.520;13.352;2023-07-31T08:26:36;100518.56;;;23.08;68.31
31044;BME280;17710;52.520;13.352;2023-07-31T08:29:03;100522.03;;;22.80;69.72
31044;BME280;17710;52.520;13.352;2023-07-31T08:31:29;100519.50;;;22.48;71.14
31044;BME280;17710;52.520;13.352;2023-07-31T08:33:56;100517.13;;;22.54;71.01
31044;BME280;17710;52.520;13.352;2023-07-31T08:36:23;100520.31;;;22.39;72.03
31044;BME280;17710;52.520;13.352;2023-07-31T08:38:50;100516.69;;;22.49;71.70
31044;BME280;17710;52.520;13.352;2023-07-31T08:41:17;100507.53;;;22.71;70.94
31044;BME280;17710;52.520;13.352;2023-07-31T08:43:44;100523.78;;;22.60;71.31
31044;BME280;17710;52.520;13.352;2023-07-31T08:46:11;100517.84;;;22.96;70.54
31044;BME280;17710;52.520;13.352;2023-07-31T08:48:41;100520.00;;;23.22;69.17
31044;BME280;17710;52.520;13.352;2023-07-31T08:51:07;100518.16;;;23.22;68.30
31044;BME280;17710;52.520;13.352;2023-07-31T08:53:35;100518.72;;;23.45;68.04
31044;BME280;17710;52.520;13.352;2023-07-31T08:56:02;100518.19;;;23.61;68.31
31044;BME280;17710;52.520;13.352;2023-07-31T08:58:31;100514.88;;;23.86;66.71
31044;BME280;17710;52.520;13.352;2023-07-31T09:00:59;100513.22;;;23.56;67.69
31044;BME280;17710;52.520;13.352;2023-07-31T09:03:27;100512.91;;;23.21;68.26
31044;BME280;17710;52.520;13.352;2023-07-31T09:05:56;100505.25;;;23.16;68.40
31044;BME280;17710;52.520;13.352;2023-07-31T09:08:26;100507.25;;;23.53;67.06
31044;BME280;17710;52.520;13.352;2023-07-31T09:10:59;100513.78;;;23.60;66.39
31044;BME280;17710;52.520;13.352;2023-07-31T09:13:25;100509.66;;;23.36;66.55
31044;BME280;17710;52.520;13.352;2023-07-31T09:15:53;100509.63;;;23.17;67.55
31044;BME280;17710;52.520;13.352;2023-07-31T09:18:19;100511.47;;;23.26;68.30
31044;BME280;17710;52.520;13.352;2023-07-31T09:21:00;100507.50;;;23.01;69.75
31044;BME280;17710;52.520;13.352;2023-07-31T09:23:40;100514.00;;;22.99;69.89
31044;BME280;17710;52.520;13.352;2023-07-31T09:26:08;100509.34;;;23.01;70.03
31044;BME280;17710;52.520;13.352;2023-07-31T09:28:34;100501.53;;;22.98;69.74
31044;BME280;17710;52.520;13.352;2023-07-31T09:31:00;100512.88;;;23.11;69.71
31044;BME280;17710;52.520;13.352;2023-07-31T09:33:27;100507.47;;;22.82;70.19
31044;BME280;17710;52.520;13.352;2023-07-31T09:35:53;100509.72;;;22.47;72.13
31044;BME280;17710;52.520;13.352;2023-07-31T09:38:19;100511.47;;;22.57;71.76
31044;BME280;17710;52.520;13.352;2023-07-31T09:40:48;100504.88;;;22.41;72.75
31044;BME280;17710;52.520;13.352;2023-07-31T09:43:19;100513.63;;;22.63;72.35
31044;BME280;17710;52.520;13.352;2023-07-31T09:45:46;100509.31;;;22.82;71.39
31044;BME280;17710;52.520;13.352;2023-07-31T09:48:14;100510.84;;;22.75;70.87
31044;BME280;17710;52.520;13.352;2023-07-31T09:50:42;100498.38;;;22.74;70.68
31044;BME280;17710;52.520;13.352;2023-07-31T09:53:09;100501.09;;;22.93;71.41
31044;BME280;17710;52.520;13.352;2023-07-31T09:55:36;100500.66;;;22.88;70.27
31044;BME280;17710;52.520;13.352;2023-07-31T09:58:04;100500.84;;;23.15;69.37
31044;BME280;17710;52.520;13.352;2023-07-31T10:00:33;100499.28;;;23.41;69.05
31044;BME280;17710;52.520;13.352;2023-07-31T10:03:01;100498.41;;;23.12;69.29
31044;BME280;17710;52.520;13.352;2023-07-31T10:05:31;100493.03;;;23.31;69.36
31044;BME280;17710;52.520;13.352;2023-07-31T10:07:58;100484.81;;;23.42;67.75
31044;BME280;17710;52.520;13.352;2023-07-31T10:10:25;100494.03;;;23.78;66.50
31044;BME280;17710;52.520;13.352;2023-07-31T10:12:54;100492.13;;;23.98;66.57
31044;BME280;17710;52.520;13.352;2023-07-31T10:15:22;100477.38;;;23.93;66.27
31044;BME280;17710;52.520;13.352;2023-07-31T10:17:50;100480.94;;;23.83;66.53
31044;BME280;17710;52.520;13.352;2023-07-31T10:20:17;100481.00;;;23.35;67.44
31044;BME280;17710;52.520;13.352;2023-07-31T10:22:44;100494.88;;;23.21;68.36
31044;BME280;17710;52.520;13.352;2023-07-31T10:25:12;100488.19;;;22.87;69.83
31044;BME280;17710;52.520;13.352;2023-07-31T10:27:39;100488.91;;;22.98;70.25
31044;BME280;17710;52.520;13.352;2023-07-31T10:30:08;100482.84;;;23.16;71.02
31044;BME280;17710;52.520;13.352;2023-07-31T10:32:38;100470.63;;;23.12;69.89
31044;BME280;17710;52.520;13.352;2023-07-31T10:35:09;100471.63;;;23.39;68.77
31044;BME280;17710;52.520;13.352;2023-07-31T10:37:37;100474.59;;;23.65;69.31
31044;BME280;17710;52.520;13.352;2023-07-31T10:40:05;100469.81;;;23.96;68.03
31044;BME280;17710;52.520;13.352;2023-07-31T10:42:33;100465.13;;;24.08;66.48
31044;BME280;17710;52.520;13.352;2023-07-31T10:45:03;100465.72;;;24.66;64.45
31044;BME280;17710;52.520;13.352;2023-07-31T10:47:29;100461.16;;;24.67;64.25
31044;BME280;17710;52.520;13.352;2023-07-31T10:50:16;100450.97;;;25.23;61.68
31044;BME280;17710;52.520;13.352;2023-07-31T10:52:46;100447.97;;;25.26;61.34
31044;BME280;17710;52.520;13.352;2023-07-31T10:57:57;100434.06;;;25.47;60.96
31044;BME280;17710;52.520;13.352;2023-07-31T11:00:26;100424.22;;;25.38;60.83
31044;BME280;17710;52.520;13.352;2023-07-31T11:02:57;100416.00;;;25.65;60.39
31044;BME280;17710;52.520;13.352;2023-07-31T11:05:44;100421.66;;;25.80;59.37
31044;BME280;17710;52.520;13.352;2023-07-31T11:08:12;100433.38;;;25.89;59.56
31044;BME280;17710;52.520;13.352;2023-07-31T11:10:39;100420.81;;;25.79;59.07
31044;BME280;17710;52.520;13.352;2023-07-31T11:13:06;100428.56;;;24.95;59.92
31044;BME280;17710;52.520;13.352;2023-07-31T11:15:32;100424.81;;;24.61;61.21
31044;BME280;17710;52.520;13.352;2023-07-31T11:18:00;100420.13;;;24.81;60.76
31044;BME280;17710;52.520;13.352;2023-07-31T11:20:29;100425.84;;;24.95;60.37
31044;BME280;17710;52.520;13.352;2023-07-31T11:23:00;100418.09;;;24.65;59.42
31044;BME280;17710;52.520;13.352;2023-07-31T11:25:28;100426.53;;;24.80;59.73
31044;BME280;17710;52.520;13.352;2023-07-31T11:27:55;100423.53;;;24.55;60.21
31044;BME280;17710;52.520;13.352;2023-07-31T11:30:22;100411.00;;;24.37;60.80
31044;BME280;17710;52.520;13.352;2023-07-31T11:32:49;100406.97;;;24.68;60.57
31044;BME280;17710;52.520;13.352;2023-07-31T11:35:15;100411.22;;;24.71;59.37
31044;BME280;17710;52.520;13.352;2023-07-31T11:37:43;100416.47;;;24.27;59.20
31044;BME280;17710;52.520;13.352;2023-07-31T11:40:11;100415.47;;;24.18;59.87
31044;BME280;17710;52.520;13.352;2023-07-31T11:42:38;100421.03;;;24.27;59.36
31044;BME280;17710;52.520;13.352;2023-07-31T11:45:05;100430.81;;;24.18;59.20
31044;BME280;17710;52.520;13.352;2023-07-31T11:47:32;100425.38;;;24.00;58.53
31044;BME280;17710;52.520;13.352;2023-07-31T11:50:00;100416.09;;;24.03;59.40
31044;BME280;17710;52.520;13.352;2023-07-31T11:52:27;100418.06;;;24.47;58.11
31044;BME280;17710;52.520;13.352;2023-07-31T11:54:55;100416.22;;;24.93;57.30
31044;BME280;17710;52.520;13.352;2023-07-31T11:57:23;100420.41;;;24.78;57.06
31044;BME280;17710;52.520;13.352;2023-07-31T11:59:50;100409.19;;;24.55;57.38
31044;BME280;17710;52.520;13.352;2023-07-31T12:02:17;100411.97;;;24.63;57.59
31044;BME280;17710;52.520;13.352;2023-07-31T12:04:45;100410.75;;;24.75;57.32
31044;BME280;17710;52.520;13.352;2023-07-31T12:07:12;100409.34;;;24.53;57.00
31044;BME280;17710;52.520;13.352;2023-07-31T12:09:50;100400.31;;;24.45;57.57
31044;BME280;17710;52.520;13.352;2023-07-31T12:12:19;100403.25;;;24.51;57.93
31044;BME280;17710;52.520;13.352;2023-07-31T12:14:47;100399.81;;;24.94;56.85
31044;BME280;17710;52.520;13.352;2023-07-31T12:17:14;100397.81;;;24.61;57.26
31044;BME280;17710;52.520;13.352;2023-07-31T12:19:41;100393.53;;;24.76;57.38
31044;BME280;17710;52.520;13.352;2023-07-31T12:22:11;100387.41;;;25.45;54.68
31044;BME280;17710;52.520;13.352;2023-07-31T12:24:39;100395.63;;;25.79;53.99
31044;BME280;17710;52.520;13.352;2023-07-31T12:27:09;100388.25;;;25.63;53.69
31044;BME280;17710;52.520;13.352;2023-07-31T12:29:35;100388.09;;;25.47;54.32
31044;BME280;17710;52.520;13.352;2023-07-31T12:32:04;100389.09;;;25.64;54.06
31044;BME280;17710;52.520;13.352;2023-07-31T12:34:31;100379.31;;;25.71;53.84
31044;BME280;17710;52.520;13.352;2023-07-31T12:36:58;100375.09;;;26.02;53.31
31044;BME280;17710;52.520;13.352;2023-07-31T12:39:25;100379.44;;;26.29;51.87
31044;BME280;17710;52.520;13.352;2023-07-31T12:41:51;100376.78;;;26.37;51.35
31044;BME280;17710;52.520;13.352;2023-07-31T12:44:18;100364.34;;;26.18;51.86